createdAt,value
2022-11-04T00:01:57.990Z,1.83
2022-11-04T00:04:27.136Z,3.58
2022-11-04T00:06:54.415Z,1.83
2022-11-04T00:09:26.980Z,1.88
2022-11-04T00:12:12.981Z,4.95
2022-11-04T00:14:39.867Z,2.33
2022-11-04T00:17:19.307Z,3.22
2022-11-04T00:20:06.441Z,2.88
2022-11-04T00:22:51.897Z,2.25
2022-11-04T00:25:37.569Z,1.60
2022-11-04T00:28:37.136Z,2.22
2022-11-04T00:31:25.008Z,1.83
2022-11-04T00:33:53.496Z,3.78
2022-11-04T00:36:21.230Z,2.83
2022-11-04T00:38:48.014Z,4.07
2022-11-04T00:41:27.905Z,2.47
2022-11-04T00:44:00.747Z,2.25
2022-11-04T00:46:28.801Z,1.98
2022-11-04T00:48:56.063Z,2.42
2022-11-04T00:51:23.693Z,2.92
2022-11-04T00:53:51.245Z,3.17
2022-11-04T00:56:18.053Z,6.57
2022-11-04T00:58:44.953Z,2.10
2022-11-04T01:01:17.617Z,2.20
2022-11-04T01:03:49.668Z,3.80
2022-11-04T01:06:17.205Z,2.30
2022-11-04T01:08:44.237Z,1.90
2022-11-04T01:11:11.794Z,3.50
2022-11-04T01:13:39.222Z,3.00
2022-11-04T01:16:08.484Z,3.67
2022-11-04T01:18:35.918Z,5.68
2022-11-04T01:21:04.609Z,5.75
2022-11-04T01:23:31.715Z,4.80
2022-11-04T01:25:58.571Z,2.83
2022-11-04T01:28:25.830Z,4.90
2022-11-04T01:30:52.630Z,4.05
2022-11-04T01:33:19.385Z,4.35
2022-11-04T01:35:46.259Z,3.92
2022-11-04T01:38:13.003Z,3.05
2022-11-04T01:40:41.193Z,5.75
2022-11-04T01:43:22.572Z,3.42
2022-11-04T01:45:57.952Z,6.18
2022-11-04T01:48:30.489Z,3.42
2022-11-04T01:50:59.256Z,4.57
2022-11-04T01:53:34.532Z,2.42
2022-11-04T01:56:12.057Z,3.20
2022-11-04T01:58:52.110Z,2.45
2022-11-04T02:01:19.986Z,2.45
2022-11-04T02:03:51.962Z,2.60
2022-11-04T02:06:21.157Z,3.63
2022-11-04T02:08:49.394Z,4.50
2022-11-04T02:11:36.329Z,4.07
2022-11-04T02:14:03.249Z,2.60
2022-11-04T02:16:42.870Z,5.60
2022-11-04T02:19:15.762Z,4.82
2022-11-04T02:22:30.185Z,3.92
2022-11-04T02:25:23.630Z,3.53
2022-11-04T02:28:18.129Z,2.85
2022-11-04T02:31:03.016Z,3.65
2022-11-04T02:33:51.056Z,4.15
2022-11-04T02:36:41.141Z,4.95
2022-11-04T02:39:25.360Z,6.07
2022-11-04T02:42:30.852Z,4.65
2022-11-04T02:45:11.323Z,5.18
2022-11-04T02:47:43.396Z,3.05
2022-11-04T02:50:13.018Z,3.70
2022-11-04T02:52:50.358Z,4.93
2022-11-04T02:55:33.356Z,4.50
2022-11-04T02:58:05.145Z,8.50
2022-11-04T03:00:33.195Z,5.15
2022-11-04T03:03:07.305Z,5.47
2022-11-04T03:05:38.476Z,2.70
2022-11-04T03:08:20.113Z,4.63
2022-11-04T03:10:59.325Z,4.22
2022-11-04T03:13:34.216Z,3.90
2022-11-04T03:16:09.185Z,5.13
2022-11-04T03:18:53.192Z,7.07
2022-11-04T03:21:22.288Z,3.15
2022-11-04T03:23:49.042Z,4.20
2022-11-04T03:26:41.517Z,6.57
2022-11-04T03:29:28.761Z,5.22
2022-11-04T03:32:20.035Z,3.05
2022-11-04T03:34:47.281Z,3.92
2022-11-04T03:37:14.296Z,4.57
2022-11-04T03:39:41.260Z,7.20
2022-11-04T03:42:21.512Z,3.63
2022-11-04T03:44:53.946Z,5.35
2022-11-04T03:47:26.414Z,4.95
2022-11-04T03:50:25.837Z,6.22
2022-11-04T03:52:52.805Z,4.55
2022-11-04T03:55:19.654Z,6.10
2022-11-04T03:58:09.538Z,3.70
2022-11-04T04:00:45.467Z,4.25
2022-11-04T04:03:18.455Z,5.57
2022-11-04T04:05:54.316Z,5.53
2022-11-04T04:08:45.765Z,4.15
2022-11-04T04:11:16.947Z,3.08
2022-11-04T04:14:10.118Z,4.03
2022-11-04T04:16:45.924Z,5.30
2022-11-04T04:19:24.043Z,5.40
2022-11-04T04:22:07.705Z,5.47
2022-11-04T04:24:56.624Z,5.28
2022-11-04T04:27:32.834Z,4.53
2022-11-04T04:30:12.211Z,4.88
2022-11-04T04:32:44.342Z,3.00
2022-11-04T04:35:30.458Z,4.70
2022-11-04T04:38:21.529Z,3.55
2022-11-04T04:41:17.643Z,4.88
2022-11-04T04:44:03.450Z,2.80
2022-11-04T04:46:32.129Z,5.13
2022-11-04T04:49:09.605Z,4.60
2022-11-04T04:51:42.389Z,5.10
2022-11-04T04:54:09.310Z,3.25
2022-11-04T04:56:36.252Z,3.30
2022-11-04T04:59:03.121Z,5.53
2022-11-04T05:01:29.988Z,4.25
2022-11-04T05:03:56.869Z,4.03
2022-11-04T05:06:23.724Z,2.30
2022-11-04T05:08:50.465Z,3.75
2022-11-04T05:11:18.245Z,3.40
2022-11-04T05:13:46.343Z,3.28
2022-11-04T05:16:13.271Z,3.33
2022-11-04T05:18:40.091Z,3.28
2022-11-04T05:21:09.009Z,5.45
2022-11-04T05:23:36.104Z,2.40
2022-11-04T05:26:03.564Z,4.32
2022-11-04T05:28:30.841Z,4.95
2022-11-04T05:30:58.084Z,4.28
2022-11-04T05:33:24.881Z,4.50
2022-11-04T05:35:51.686Z,6.10
2022-11-04T05:38:18.467Z,3.15
2022-11-04T05:40:45.198Z,3.22
2022-11-04T05:43:12.225Z,4.28
2022-11-04T05:45:39.097Z,4.95
2022-11-04T05:48:06.083Z,6.63
2022-11-04T05:50:34.463Z,4.90
2022-11-04T05:53:01.852Z,6.05
2022-11-04T05:55:28.704Z,3.28
2022-11-04T05:57:57.735Z,6.57
2022-11-04T06:00:24.896Z,5.43
2022-11-04T06:02:51.893Z,4.25
2022-11-04T06:05:21.739Z,7.15
2022-11-04T06:07:48.554Z,4.10
2022-11-04T06:10:15.366Z,4.65
2022-11-04T06:12:42.302Z,4.40
2022-11-04T06:15:09.621Z,5.45
2022-11-04T06:17:36.571Z,5.25
2022-11-04T06:20:04.027Z,5.22
2022-11-04T06:22:30.745Z,4.97
2022-11-04T06:24:57.506Z,3.55
2022-11-04T06:27:24.423Z,4.97
2022-11-04T06:29:52.755Z,7.53
2022-11-04T06:32:19.978Z,3.75
2022-11-04T06:34:46.938Z,4.65
2022-11-04T06:37:13.797Z,3.13
2022-11-04T06:39:40.582Z,4.57
2022-11-04T06:42:07.498Z,5.38
2022-11-04T06:44:34.819Z,8.13
2022-11-04T06:47:01.901Z,5.22
2022-11-04T06:49:28.753Z,3.60
2022-11-04T06:51:55.695Z,5.88
2022-11-04T06:54:22.446Z,5.38
2022-11-04T06:56:49.465Z,8.43
2022-11-04T06:59:18.996Z,7.22
2022-11-04T07:01:46.974Z,6.10
2022-11-04T07:04:13.861Z,6.13
2022-11-04T07:06:44.299Z,4.05
2022-11-04T07:09:13.673Z,3.58
2022-11-04T07:11:41.585Z,6.03
2022-11-04T07:14:09.089Z,4.70
2022-11-04T07:16:36.233Z,7.10
2022-11-04T07:19:03.655Z,5.30
2022-11-04T07:21:30.841Z,7.53
2022-11-04T07:23:57.814Z,7.55
2022-11-04T07:26:24.711Z,7.38
2022-11-04T07:28:51.529Z,4.40
2022-11-04T07:31:18.705Z,5.70
2022-11-04T07:33:49.995Z,6.00
2022-11-04T07:36:17.946Z,4.15
2022-11-04T07:38:45.309Z,6.43
2022-11-04T07:41:12.816Z,4.55
2022-11-04T07:43:39.788Z,4.38
2022-11-04T07:46:12.742Z,6.20
2022-11-04T07:48:40.049Z,6.75
2022-11-04T07:51:08.903Z,6.20
2022-11-04T07:53:35.982Z,3.92
2022-11-04T07:56:07.681Z,4.78
2022-11-04T07:58:34.809Z,8.00
2022-11-04T08:01:07.840Z,7.15
2022-11-04T08:03:36.734Z,6.00
2022-11-04T08:06:05.676Z,4.80
2022-11-04T08:08:32.779Z,6.25
2022-11-04T08:11:11.441Z,6.13
2022-11-04T08:13:42.157Z,3.88
2022-11-04T08:16:18.705Z,4.80
2022-11-04T08:18:46.354Z,4.72
2022-11-04T08:21:13.865Z,7.80
2022-11-04T08:23:40.634Z,8.45
2022-11-04T08:26:09.786Z,5.75
2022-11-04T08:28:36.697Z,7.93
2022-11-04T08:31:10.891Z,7.25
2022-11-04T08:33:37.641Z,5.35
2022-11-04T08:36:11.152Z,7.68
2022-11-04T08:38:38.279Z,8.93
2022-11-04T08:41:07.046Z,6.47
2022-11-04T08:43:35.088Z,8.93
2022-11-04T08:46:04.763Z,7.93
2022-11-04T08:48:31.773Z,6.35
2022-11-04T08:50:59.080Z,6.80
2022-11-04T08:53:26.335Z,6.35
2022-11-04T08:55:54.095Z,6.00
2022-11-04T08:58:21.945Z,5.60
2022-11-04T09:00:49.482Z,6.80
2022-11-04T09:03:16.481Z,5.50
2022-11-04T09:05:44.923Z,6.35
2022-11-04T09:08:16.815Z,6.13
2022-11-04T09:10:45.071Z,4.97
2022-11-04T09:13:12.837Z,7.85
2022-11-04T09:15:39.915Z,5.45
2022-11-04T09:18:07.024Z,5.97
2022-11-04T09:20:34.866Z,4.97
2022-11-04T09:23:01.809Z,8.50
2022-11-04T09:25:28.834Z,6.15
2022-11-04T09:27:55.717Z,7.55
2022-11-04T09:30:22.626Z,5.93
2022-11-04T09:32:52.791Z,5.63
2022-11-04T09:35:20.359Z,5.57
2022-11-04T09:37:47.160Z,6.25
2022-11-04T09:40:20.640Z,7.68
2022-11-04T09:42:53.164Z,4.47
2022-11-04T09:45:26.277Z,6.15
2022-11-04T09:47:58.389Z,7.43
2022-11-04T09:50:29.621Z,6.70
2022-11-04T09:53:09.779Z,3.72
2022-11-04T09:55:47.099Z,4.93
2022-11-04T09:58:16.750Z,4.03
2022-11-04T10:00:58.343Z,4.18
2022-11-04T10:03:44.795Z,5.07
2022-11-04T10:07:11.135Z,6.30
2022-11-04T10:10:00.623Z,4.68
2022-11-04T10:12:45.211Z,3.38
2022-11-04T10:15:30.154Z,6.82
2022-11-04T10:18:24.198Z,6.05
2022-11-04T10:21:04.542Z,7.63
2022-11-04T10:23:38.278Z,4.95
2022-11-04T10:26:05.039Z,5.20
2022-11-04T10:28:39.474Z,5.05
2022-11-04T10:31:07.056Z,7.22
2022-11-04T10:33:39.090Z,7.93
2022-11-04T10:36:11.161Z,6.63
2022-11-04T10:38:46.934Z,5.85
2022-11-04T10:41:13.797Z,4.38
2022-11-04T10:43:41.516Z,6.18
2022-11-04T10:46:17.298Z,7.65
2022-11-04T10:48:55.666Z,6.70
2022-11-04T10:51:24.341Z,8.43
2022-11-04T10:53:55.461Z,6.10
2022-11-04T10:56:43.355Z,5.35
2022-11-04T10:59:49.301Z,5.78
2022-11-04T11:02:16.578Z,4.28
2022-11-04T11:04:47.908Z,6.63
2022-11-04T11:07:22.924Z,5.95
2022-11-04T11:09:54.412Z,4.70
2022-11-04T11:12:50.771Z,6.90
2022-11-04T11:15:30.088Z,6.57
2022-11-04T11:18:01.301Z,5.70
2022-11-04T11:20:28.089Z,7.50
2022-11-04T11:23:35.801Z,5.80
2022-11-04T11:26:30.747Z,6.78
2022-11-04T11:29:23.822Z,6.43
2022-11-04T11:32:34.815Z,7.55
2022-11-04T11:35:27.178Z,8.10
2022-11-04T11:38:27.613Z,5.78
2022-11-04T11:41:26.118Z,5.72
2022-11-04T11:44:32.661Z,8.07
2022-11-04T11:47:42.125Z,9.07
2022-11-04T11:50:35.628Z,7.47
2022-11-04T11:53:24.429Z,7.50
2022-11-04T11:56:51.731Z,6.75
2022-11-04T12:03:18.145Z,8.73
2022-11-04T12:06:29.644Z,9.18
2022-11-04T12:09:18.311Z,13.55
2022-11-04T12:12:24.996Z,7.75
2022-11-04T12:15:33.391Z,9.45
2022-11-04T12:18:54.577Z,10.05
2022-11-04T12:21:49.378Z,7.60
2022-11-04T12:24:42.563Z,9.98
2022-11-04T12:27:37.639Z,10.75
2022-11-04T12:30:32.415Z,8.70
2022-11-04T12:34:10.074Z,10.98
2022-11-04T12:37:11.847Z,10.80
2022-11-04T12:40:23.889Z,12.93
2022-11-04T12:43:27.915Z,14.02
2022-11-04T12:46:32.294Z,13.93
2022-11-04T12:49:38.193Z,16.45
2022-11-04T12:52:43.361Z,13.38
2022-11-04T12:56:08.548Z,15.20
2022-11-04T12:59:04.656Z,15.10
2022-11-04T13:02:05.073Z,13.20
2022-11-04T13:05:08.768Z,11.88
2022-11-04T13:08:00.974Z,17.88
2022-11-04T13:10:57.359Z,14.77
2022-11-04T13:13:44.598Z,14.20
2022-11-04T13:16:42.467Z,13.38
2022-11-04T13:20:11.675Z,12.25
2022-11-04T13:23:03.507Z,15.82
2022-11-04T13:25:52.464Z,12.13
2022-11-04T13:28:41.825Z,10.95
2022-11-04T13:32:25.362Z,11.18
2022-11-04T13:35:41.886Z,12.55
2022-11-04T13:38:34.427Z,13.02
2022-11-04T13:41:24.513Z,13.38
2022-11-04T13:44:28.307Z,10.98
2022-11-04T13:47:22.594Z,11.68
2022-11-04T13:50:30.558Z,12.10
2022-11-04T13:53:17.628Z,11.63
2022-11-04T13:56:27.967Z,13.73
2022-11-04T13:59:17.821Z,10.23
2022-11-04T14:02:11.506Z,12.20
2022-11-04T14:05:18.700Z,11.07
2022-11-04T14:08:12.519Z,10.50
2022-11-04T14:11:04.658Z,10.95
2022-11-04T14:14:02.942Z,10.20
2022-11-04T14:16:50.834Z,8.70
2022-11-04T14:19:48.319Z,7.18
2022-11-04T14:22:44.676Z,10.10
2022-11-04T14:25:41.153Z,6.45
2022-11-04T14:28:30.661Z,6.70
2022-11-04T14:31:38.290Z,6.85
2022-11-04T14:34:29.966Z,4.45
2022-11-04T14:37:28.787Z,6.35
2022-11-04T14:40:44.243Z,5.15
2022-11-04T14:43:35.116Z,4.53
2022-11-04T14:46:29.586Z,6.75
2022-11-04T14:49:51.138Z,6.85
2022-11-04T14:52:44.314Z,5.18
2022-11-04T14:55:32.356Z,4.50
2022-11-04T14:58:28.256Z,6.00
2022-11-04T15:01:16.662Z,6.95
2022-11-04T15:04:14.767Z,3.83
2022-11-04T15:07:05.042Z,2.65
2022-11-04T15:09:52.393Z,3.97
2022-11-04T15:12:50.527Z,2.20
2022-11-04T15:15:41.629Z,2.28
2022-11-04T15:18:29.314Z,2.13
2022-11-04T15:21:16.613Z,3.03
2022-11-04T15:24:04.234Z,3.67
2022-11-04T15:26:53.246Z,2.50
2022-11-04T15:29:40.484Z,2.45
2022-11-04T15:32:28.092Z,1.70
2022-11-04T15:35:15.305Z,2.20
2022-11-04T15:38:03.888Z,2.45
2022-11-04T15:40:51.377Z,1.13
2022-11-04T15:43:39.459Z,3.05
2022-11-04T15:46:29.596Z,1.63
2022-11-04T15:49:28.319Z,1.52
2022-11-04T15:52:25.184Z,2.45
2022-11-04T15:55:24.424Z,1.30
2022-11-04T15:58:14.758Z,2.28
2022-11-04T16:01:02.165Z,1.45
2022-11-04T16:03:55.680Z,1.95
2022-11-04T16:06:44.780Z,1.45
2022-11-04T16:09:44.288Z,2.80
2022-11-04T16:12:44.573Z,2.03
2022-11-04T16:15:36.497Z,1.65
2022-11-04T16:18:28.957Z,1.67
2022-11-04T16:21:26.508Z,2.50
2022-11-04T16:24:23.349Z,2.20
2022-11-04T16:27:12.049Z,2.13
2022-11-04T16:30:16.483Z,2.33
2022-11-04T16:33:17.630Z,3.13
2022-11-04T16:36:13.949Z,3.13
2022-11-04T16:39:08.623Z,2.67
2022-11-04T16:41:56.804Z,3.78
2022-11-04T16:44:49.502Z,2.97
2022-11-04T16:47:39.820Z,2.22
2022-11-04T16:50:28.336Z,2.67
2022-11-04T16:53:15.510Z,3.88
2022-11-04T16:56:02.630Z,2.28
2022-11-04T16:58:50.118Z,2.28
2022-11-04T17:01:39.751Z,4.43
2022-11-04T17:04:27.096Z,4.93
2022-11-04T17:07:14.226Z,3.50
2022-11-04T17:10:01.493Z,2.17
2022-11-04T17:12:48.619Z,2.22
2022-11-04T17:15:35.776Z,2.35
2022-11-04T17:18:23.011Z,4.10
2022-11-04T17:21:17.042Z,3.85
2022-11-04T17:24:04.728Z,2.90
2022-11-04T17:26:52.045Z,3.17
2022-11-04T17:29:39.389Z,3.78
2022-11-04T17:32:26.520Z,5.28
2022-11-04T17:35:14.568Z,3.03
2022-11-04T17:38:01.747Z,3.97
2022-11-04T17:41:07.249Z,3.88
2022-11-04T17:44:00.538Z,4.22
2022-11-04T17:46:48.839Z,5.82
2022-11-04T17:49:39.841Z,5.82
2022-11-04T17:52:26.885Z,5.65
2022-11-04T17:55:18.009Z,7.78
2022-11-04T17:58:06.836Z,5.10
2022-11-04T18:00:53.967Z,6.07
2022-11-04T18:03:42.189Z,5.10
2022-11-04T18:06:35.068Z,4.95
2022-11-04T18:09:22.117Z,4.20
2022-11-04T18:12:27.722Z,4.63
2022-11-04T18:15:18.918Z,5.25
2022-11-04T18:18:06.482Z,4.05
2022-11-04T18:21:03.091Z,5.72
2022-11-04T18:23:50.216Z,4.35
2022-11-04T18:26:37.490Z,6.63
2022-11-04T18:29:24.873Z,4.72
2022-11-04T18:32:12.012Z,6.72
2022-11-04T18:34:59.224Z,5.63
2022-11-04T18:37:47.545Z,5.45
2022-11-04T18:40:34.971Z,6.55
2022-11-04T18:43:22.648Z,5.93
2022-11-04T18:46:11.462Z,6.40
2022-11-04T18:48:59.388Z,10.35
2022-11-04T18:51:46.817Z,11.30
2022-11-04T18:54:34.210Z,8.95
2022-11-04T18:57:21.292Z,11.25
2022-11-04T19:00:14.269Z,5.28
2022-11-04T19:03:04.268Z,8.30
2022-11-04T19:05:51.364Z,6.82
2022-11-04T19:08:43.713Z,7.32
2022-11-04T19:11:36.234Z,6.68
2022-11-04T19:14:23.372Z,6.38
2022-11-04T19:17:10.538Z,5.80
2022-11-04T19:19:58.171Z,6.57
2022-11-04T19:22:45.326Z,9.05
2022-11-04T19:25:32.594Z,6.10
2022-11-04T19:28:37.090Z,6.03
2022-11-04T19:31:30.001Z,5.45
2022-11-04T19:34:17.164Z,6.32
2022-11-04T19:37:04.405Z,6.00
2022-11-04T19:39:51.566Z,5.60
2022-11-04T19:42:57.160Z,7.03
2022-11-04T19:45:46.198Z,5.30
2022-11-04T19:48:33.457Z,8.35
2022-11-04T19:51:20.806Z,8.23
2022-11-04T19:54:08.440Z,7.32
2022-11-04T19:56:56.011Z,8.00
2022-11-04T19:59:43.098Z,6.78
2022-11-04T20:02:30.265Z,7.20
2022-11-04T20:05:17.962Z,7.82
2022-11-04T20:08:06.732Z,8.75
2022-11-04T20:10:54.052Z,10.80
2022-11-04T20:13:44.405Z,6.90
2022-11-04T20:16:32.833Z,6.88
2022-11-04T20:19:22.897Z,9.68
2022-11-04T20:22:10.561Z,9.68
2022-11-04T20:24:57.951Z,9.82
2022-11-04T20:27:45.122Z,10.60
2022-11-04T20:30:35.357Z,9.63
2022-11-04T20:33:23.614Z,9.93
2022-11-04T20:36:11.531Z,9.02
2022-11-04T20:39:04.257Z,10.73
2022-11-04T20:41:51.436Z,9.48
2022-11-04T20:44:38.542Z,12.32
2022-11-04T20:47:25.719Z,11.15
2022-11-04T20:50:12.897Z,14.35
2022-11-04T20:52:59.987Z,9.93
2022-11-04T20:55:49.110Z,12.35
2022-11-04T20:58:41.386Z,10.07
2022-11-04T21:01:31.161Z,10.45
2022-11-04T21:04:19.804Z,13.00
2022-11-04T21:07:07.462Z,12.13
2022-11-04T21:09:54.552Z,12.55
2022-11-04T21:12:41.723Z,10.55
2022-11-04T21:15:41.201Z,14.65
2022-11-04T21:18:29.114Z,13.25
2022-11-04T21:21:17.387Z,15.45
2022-11-04T21:24:06.089Z,12.13
2022-11-04T21:26:53.285Z,11.05
2022-11-04T21:29:40.804Z,9.65
2022-11-04T21:32:27.889Z,10.35
2022-11-04T21:35:15.025Z,12.43
2022-11-04T21:38:03.217Z,9.70
2022-11-04T21:40:51.781Z,9.68
2022-11-04T21:43:39.264Z,10.38
2022-11-04T21:46:28.416Z,7.88
2022-11-04T21:49:15.581Z,8.98
2022-11-04T21:52:02.887Z,11.65
2022-11-04T21:54:51.183Z,7.90
2022-11-04T21:57:39.315Z,6.90
2022-11-04T22:00:26.479Z,8.80
2022-11-04T22:03:13.719Z,9.38
2022-11-04T22:06:02.945Z,11.05
2022-11-04T22:08:54.355Z,8.30
2022-11-04T22:11:41.647Z,10.63
2022-11-04T22:14:29.480Z,7.95
2022-11-04T22:17:16.536Z,8.32
2022-11-04T22:20:04.691Z,6.45
2022-11-04T22:22:32.027Z,9.65
2022-11-04T22:25:04.425Z,8.70
2022-11-04T22:27:32.855Z,7.75
2022-11-04T22:30:00.086Z,9.00
2022-11-04T22:32:28.969Z,6.90
2022-11-04T22:34:55.942Z,6.65
2022-11-04T22:37:22.840Z,6.47
2022-11-04T22:39:49.625Z,9.38
2022-11-04T22:42:16.454Z,8.45
2022-11-04T22:44:43.253Z,8.52
2022-11-04T22:47:10.046Z,8.57
2022-11-04T22:49:37.493Z,8.63
2022-11-04T22:52:04.630Z,8.27
2022-11-04T22:54:31.679Z,9.55
2022-11-04T22:56:58.525Z,6.70
2022-11-04T22:59:25.509Z,9.05
2022-11-04T23:01:52.776Z,7.03
2022-11-04T23:04:19.764Z,7.05
2022-11-04T23:06:46.710Z,10.43
2022-11-04T23:09:13.837Z,9.55
2022-11-04T23:11:59.988Z,8.18
2022-11-04T23:14:41.714Z,8.32
2022-11-04T23:17:45.079Z,8.52
2022-11-04T23:20:14.266Z,7.97
2022-11-04T23:23:00.443Z,6.55
2022-11-04T23:25:27.486Z,7.60
2022-11-04T23:28:13.804Z,6.15
2022-11-04T23:30:46.324Z,7.30
2022-11-04T23:33:15.728Z,6.38
2022-11-04T23:36:07.572Z,5.10
2022-11-04T23:38:35.572Z,6.85
2022-11-04T23:41:25.557Z,4.72
2022-11-04T23:43:52.364Z,4.80
2022-11-04T23:46:42.654Z,5.32
2022-11-04T23:49:13.336Z,6.18
2022-11-04T23:52:03.556Z,6.50
2022-11-04T23:54:48.810Z,4.82
2022-11-04T23:57:36.420Z,5.72
